createdAt,value
2018-05-03T00:00:50.543Z,4.74
2018-05-03T00:02:00.680Z,4.76
2018-05-03T00:03:10.913Z,4.78
2018-05-03T00:04:20.652Z,4.78
2018-05-03T00:05:30.384Z,4.76
2018-05-03T00:06:40.125Z,4.78
2018-05-03T00:07:50.128Z,4.78
2018-05-03T00:09:00.139Z,4.7
2018-05-03T00:10:09.607Z,4.74
2018-05-03T00:11:19.629Z,4.75
2018-05-03T00:12:29.633Z,4.76
2018-05-03T00:13:39.641Z,4.75
2018-05-03T00:14:49.378Z,4.75
2018-05-03T00:15:58.856Z,4.71
2018-05-03T00:17:08.862Z,4.68
2018-05-03T00:18:18.781Z,4.71
2018-05-03T00:19:28.934Z,4.78
2018-05-03T00:20:38.946Z,4.83
2018-05-03T00:21:48.956Z,4.86
2018-05-03T00:22:59.067Z,4.83
2018-05-03T00:24:08.815Z,4.79
2018-05-03T00:25:18.816Z,4.84
2018-05-03T00:26:28.557Z,4.79
2018-05-03T00:27:38.306Z,4.82
2018-05-03T00:28:48.313Z,4.76
2018-05-03T00:29:58.316Z,4.75
2018-05-03T00:31:07.521Z,4.71
2018-05-03T00:32:17.273Z,4.71
2018-05-03T00:33:27.278Z,4.67
2018-05-03T00:34:37.282Z,4.68
2018-05-03T00:35:47.290Z,4.68
2018-05-03T00:36:57.292Z,4.76
2018-05-03T00:38:07.316Z,4.76
2018-05-03T00:39:17.049Z,4.76
2018-05-03T00:40:26.817Z,4.75
2018-05-03T00:41:36.813Z,4.83
2018-05-03T00:42:46.547Z,4.82
2018-05-03T00:43:56.017Z,4.75
2018-05-03T00:45:05.755Z,4.82
2018-05-03T00:46:15.758Z,4.76
2018-05-03T00:47:25.494Z,4.68
2018-05-03T00:48:35.239Z,4.75
2018-05-03T00:49:45.239Z,4.71
2018-05-03T00:50:54.977Z,4.75
2018-05-03T00:52:04.724Z,4.79
2018-05-03T00:53:14.726Z,4.68
2018-05-03T00:54:24.459Z,4.71
2018-05-03T00:55:33.658Z,4.74
2018-05-03T00:56:43.397Z,4.71
2018-05-03T00:57:53.185Z,4.7
2018-05-03T00:59:03.266Z,4.7
2018-05-03T01:00:13.017Z,4.67
2018-05-03T01:01:23.021Z,4.71
2018-05-03T01:02:32.755Z,4.66
2018-05-03T01:03:42.761Z,4.64
2018-05-03T01:04:52.226Z,4.7
2018-05-03T01:06:01.700Z,4.66
2018-05-03T01:07:10.634Z,4.66
2018-05-03T01:08:20.640Z,4.57
2018-05-03T01:09:30.113Z,4.68
2018-05-03T01:10:39.587Z,4.61
2018-05-03T01:11:49.610Z,4.61
2018-05-03T01:12:59.349Z,4.63
2018-05-03T01:14:09.087Z,4.52
2018-05-03T01:15:19.095Z,4.61
2018-05-03T01:16:29.092Z,4.58
2018-05-03T01:17:39.094Z,4.64
2018-05-03T01:18:49.105Z,4.66
2018-05-03T01:19:59.115Z,4.71
2018-05-03T01:21:08.591Z,4.66
2018-05-03T01:22:18.324Z,4.63
2018-05-03T01:23:28.074Z,4.64
2018-05-03T01:24:37.576Z,4.66
2018-05-03T01:25:47.327Z,4.74
2018-05-03T01:26:57.065Z,4.74
2018-05-03T01:28:06.541Z,4.86
2018-05-03T01:29:16.280Z,4.98
2018-05-03T01:30:26.284Z,4.94
2018-05-03T01:31:36.286Z,4.98
2018-05-03T01:32:46.289Z,5.01
2018-05-03T01:33:56.025Z,5.15
2018-05-03T01:35:05.764Z,5.13
2018-05-03T01:36:15.230Z,5.28
2018-05-03T01:37:25.241Z,5.2
2018-05-03T01:38:34.981Z,5.2
2018-05-03T01:39:44.719Z,5.19
2018-05-03T01:40:54.203Z,5.22
2018-05-03T01:42:04.219Z,5.26
2018-05-03T01:43:13.693Z,5.29
2018-05-03T01:44:23.693Z,5.34
2018-05-03T01:45:33.444Z,5.44
2018-05-03T01:46:43.452Z,5.47
2018-05-03T01:47:53.457Z,5.58
2018-05-03T01:49:03.456Z,5.56
2018-05-03T01:50:12.924Z,5.59
2018-05-03T01:51:22.675Z,5.61
2018-05-03T01:52:32.412Z,5.61
2018-05-03T01:53:41.886Z,5.55
2018-05-03T01:54:51.890Z,5.55
2018-05-03T01:56:01.631Z,5.54
2018-05-03T01:57:11.369Z,5.61
2018-05-03T01:58:21.105Z,5.65
2018-05-03T01:59:30.571Z,5.64
2018-05-03T02:00:40.307Z,5.7
2018-05-03T02:01:50.099Z,5.74
2018-05-03T02:03:00.100Z,5.72
2018-05-03T02:04:10.118Z,5.69
2018-05-03T02:05:20.121Z,5.72
2018-05-03T02:06:29.885Z,5.77
2018-05-03T02:07:39.900Z,5.79
2018-05-03T02:08:49.373Z,5.87
2018-05-03T02:09:59.378Z,5.8
2018-05-03T02:11:08.852Z,5.83
2018-05-03T02:12:18.590Z,5.92
2018-05-03T02:13:28.596Z,5.81
2018-05-03T02:14:37.800Z,5.9
2018-05-03T02:15:47.810Z,5.91
2018-05-03T02:16:57.622Z,5.81
2018-05-03T02:18:07.626Z,5.87
2018-05-03T02:19:17.639Z,5.83
2018-05-03T02:20:27.652Z,5.94
2018-05-03T02:21:37.657Z,5.84
2018-05-03T02:22:47.397Z,6.01
2018-05-03T02:23:57.414Z,5.95
2018-05-03T02:25:07.352Z,5.99
2018-05-03T02:26:17.362Z,5.98
2018-05-03T02:27:27.406Z,6.09
2018-05-03T02:28:37.144Z,6.07
2018-05-03T02:29:47.152Z,6.09
2018-05-03T02:30:57.159Z,6.15
2018-05-03T02:32:06.647Z,6.19
2018-05-03T02:33:16.671Z,6.25
2018-05-03T02:34:26.149Z,6.2
2018-05-03T02:35:35.903Z,6.19
2018-05-03T02:36:46.022Z,6.36
2018-05-03T02:37:55.758Z,6.29
2018-05-03T02:39:05.509Z,6.38
2018-05-03T02:40:15.533Z,6.34
2018-05-03T02:41:24.739Z,6.34
2018-05-03T02:42:34.753Z,6.39
2018-05-03T02:43:44.229Z,6.34
2018-05-03T02:44:53.972Z,6.34
2018-05-03T02:46:03.716Z,6.44
2018-05-03T02:47:13.736Z,6.35
2018-05-03T02:48:23.208Z,6.36
2018-05-03T02:49:33.223Z,6.36
2018-05-03T02:50:42.968Z,6.35
2018-05-03T02:51:52.706Z,6.31
2018-05-03T02:53:02.188Z,6.2
2018-05-03T02:54:11.926Z,6.13
2018-05-03T02:55:21.956Z,6.06
2018-05-03T02:56:31.976Z,6.01
2018-05-03T02:57:41.714Z,5.91
2018-05-03T02:58:51.728Z,5.88
2018-05-03T03:00:01.462Z,5.88
2018-05-03T03:03:43.264Z,5.73
2018-05-03T03:04:53.279Z,5.73
2018-05-03T03:06:03.023Z,5.72
2018-05-03T03:07:12.502Z,5.72
2018-05-03T03:08:22.243Z,5.64
2018-05-03T03:09:31.990Z,5.61
2018-05-03T03:10:41.888Z,5.67
2018-05-03T03:11:51.637Z,5.73
2018-05-03T03:13:01.111Z,5.7
2018-05-03T03:14:10.599Z,5.55
2018-05-03T03:15:20.342Z,5.52
2018-05-03T03:16:30.390Z,5.67
2018-05-03T03:17:40.401Z,5.52
2018-05-03T03:18:49.600Z,5.52
2018-05-03T03:19:59.603Z,5.59
2018-05-03T03:21:09.344Z,5.55
2018-05-03T03:22:19.350Z,5.55
2018-05-03T03:23:29.352Z,5.59
2018-05-03T03:24:39.357Z,5.61
2018-05-03T03:25:49.093Z,5.59
2018-05-03T03:26:58.835Z,5.61
2018-05-03T03:28:08.625Z,5.54
2018-05-03T03:29:18.711Z,5.61
2018-05-03T03:30:28.715Z,5.56
2018-05-03T03:31:38.201Z,5.54
2018-05-03T03:32:47.934Z,5.69
2018-05-03T03:33:57.415Z,5.69
2018-05-03T03:35:06.901Z,5.69
2018-05-03T03:36:16.643Z,5.56
2018-05-03T03:37:26.115Z,5.64
2018-05-03T03:38:35.914Z,5.61
2018-05-03T03:39:46.038Z,5.64
2018-05-03T03:40:55.780Z,5.64
2018-05-03T03:42:05.521Z,5.72
2018-05-03T03:43:14.996Z,5.73
2018-05-03T03:44:25.009Z,5.74
2018-05-03T03:45:34.752Z,5.74
2018-05-03T03:46:44.493Z,5.8
2018-05-03T03:47:53.996Z,5.81
2018-05-03T03:49:04.020Z,5.77
2018-05-03T03:50:13.495Z,5.83
2018-05-03T03:51:23.240Z,5.84
2018-05-03T03:52:32.980Z,5.9
2018-05-03T03:53:42.715Z,5.81
2018-05-03T03:54:52.454Z,5.92
2018-05-03T03:56:02.186Z,6.01
2018-05-03T03:57:11.663Z,5.97
2018-05-03T03:58:21.414Z,6.12
2018-05-03T03:59:31.229Z,6.17
2018-05-03T04:00:40.975Z,6.19
2018-05-03T04:01:50.998Z,6.28
2018-05-03T04:03:00.473Z,6.22
2018-05-03T04:04:10.262Z,6.16
2018-05-03T04:05:20.002Z,6.1
2018-05-03T04:06:30.010Z,6.05
2018-05-03T04:07:40.020Z,6.05
2018-05-03T04:08:50.043Z,6.07
2018-05-03T04:09:59.783Z,6.17
2018-05-03T04:11:09.527Z,6.19
2018-05-03T04:12:19.360Z,6.28
2018-05-03T04:13:29.374Z,6.2
2018-05-03T04:14:39.380Z,6.15
2018-05-03T04:15:48.589Z,6.12
2018-05-03T04:16:58.601Z,6.25
2018-05-03T04:18:07.539Z,6.25
2018-05-03T04:19:17.012Z,6.16
2018-05-03T04:20:27.022Z,6.25
2018-05-03T04:21:36.785Z,6.25
2018-05-03T04:22:46.793Z,6.22
2018-05-03T04:23:56.809Z,6.17
2018-05-03T04:25:06.544Z,6.15
2018-05-03T04:26:16.015Z,6.13
2018-05-03T04:27:26.019Z,6.1
2018-05-03T04:28:36.028Z,6.13
2018-05-03T04:29:45.507Z,6.15
2018-05-03T04:30:55.251Z,6.01
2018-05-03T04:32:04.985Z,6.01
2018-05-03T04:33:14.986Z,5.99
2018-05-03T04:34:24.732Z,6.05
2018-05-03T04:35:34.280Z,5.98
2018-05-03T04:36:44.018Z,5.92
2018-05-03T04:37:54.024Z,5.84
2018-05-03T04:39:03.762Z,5.92
2018-05-03T04:40:12.986Z,5.9
2018-05-03T04:41:22.734Z,5.9
2018-05-03T04:42:32.748Z,5.9
2018-05-03T04:43:42.219Z,5.9
2018-05-03T04:44:51.705Z,5.95
2018-05-03T04:46:01.736Z,5.87
2018-05-03T04:47:11.207Z,5.83
2018-05-03T04:48:20.944Z,5.81
2018-05-03T04:49:30.953Z,5.8
2018-05-03T04:50:40.957Z,5.79
2018-05-03T04:51:50.965Z,5.9
2018-05-03T04:53:00.980Z,5.94
2018-05-03T04:54:11.224Z,5.9
2018-05-03T04:55:21.213Z,5.98
2018-05-03T04:56:31.222Z,6.02
2018-05-03T04:57:41.225Z,5.99
2018-05-03T04:58:51.233Z,5.97
2018-05-03T05:00:00.443Z,5.99
2018-05-03T05:01:10.477Z,5.97
2018-05-03T05:02:20.316Z,5.87
2018-05-03T05:03:30.059Z,5.97
2018-05-03T05:04:39.820Z,5.95
2018-05-03T05:05:49.704Z,5.99
2018-05-03T05:06:59.704Z,6.05
2018-05-03T05:08:09.184Z,5.99
2018-05-03T05:09:19.188Z,5.97
2018-05-03T05:10:28.467Z,6.1
2018-05-03T05:11:37.994Z,6.09
2018-05-03T05:12:48.016Z,5.99
2018-05-03T05:13:58.023Z,6.12
2018-05-03T05:15:08.027Z,6.09
2018-05-03T05:16:18.037Z,6.16
2018-05-03T05:17:28.043Z,6.19
2018-05-03T05:18:38.054Z,6.19
2018-05-03T05:19:47.793Z,6.2
2018-05-03T05:20:57.808Z,6.15
2018-05-03T05:22:07.552Z,6.32
2018-05-03T05:23:17.558Z,6.32
2018-05-03T05:24:27.611Z,6.25
2018-05-03T05:25:37.623Z,6.32
2018-05-03T05:26:47.365Z,6.22
2018-05-03T05:27:57.377Z,6.35
2018-05-03T05:29:06.321Z,6.32
2018-05-03T05:30:16.330Z,6.34
2018-05-03T05:31:26.344Z,6.34
2018-05-03T05:32:36.348Z,6.31
2018-05-03T05:33:45.565Z,6.31
2018-05-03T05:34:55.306Z,6.38
2018-05-03T05:36:05.343Z,6.34
2018-05-03T05:37:15.363Z,6.36
2018-05-03T05:38:25.196Z,6.43
2018-05-03T05:39:34.686Z,6.46
2018-05-03T05:40:44.153Z,6.52
2018-05-03T05:41:53.887Z,6.6
2018-05-03T05:43:03.356Z,6.54
2018-05-03T05:44:12.836Z,6.64
2018-05-03T05:45:23.026Z,6.64
2018-05-03T05:46:33.027Z,6.72
2018-05-03T05:47:42.872Z,6.78
2018-05-03T05:48:52.877Z,6.86
2018-05-03T05:50:02.884Z,6.96
2018-05-03T05:51:12.918Z,7.1
2018-05-03T05:52:22.811Z,7.13
2018-05-03T05:53:32.821Z,7.18
2018-05-03T05:54:42.834Z,7.11
2018-05-03T05:55:52.303Z,7.29
2018-05-03T05:57:02.316Z,7.31
2018-05-03T05:58:12.336Z,7.25
2018-05-03T05:59:22.071Z,7.29
2018-05-03T06:00:31.813Z,7.28
2018-05-03T06:01:41.621Z,7.26
2018-05-03T06:02:51.629Z,7.33
2018-05-03T06:04:01.371Z,7.37
2018-05-03T06:05:11.112Z,7.4
2018-05-03T06:06:20.850Z,7.4
2018-05-03T06:07:30.870Z,7.48
2018-05-03T06:08:40.884Z,7.62
2018-05-03T06:09:50.891Z,7.56
2018-05-03T06:11:00.695Z,7.62
2018-05-03T06:12:09.906Z,7.56
2018-05-03T06:13:20.008Z,7.53
2018-05-03T06:14:29.759Z,7.62
2018-05-03T06:15:39.231Z,7.69
2018-05-03T06:16:48.705Z,7.61
2018-05-03T06:17:59.426Z,7.67
2018-05-03T06:19:09.162Z,7.7
2018-05-03T06:20:19.190Z,7.75
2018-05-03T06:21:28.977Z,7.83
2018-05-03T06:22:38.449Z,7.75
2018-05-03T06:23:47.922Z,7.87
2018-05-03T06:24:57.669Z,7.96
2018-05-03T06:26:06.968Z,7.88
2018-05-03T06:27:16.536Z,7.96
2018-05-03T06:28:26.554Z,8.05
2018-05-03T06:29:36.564Z,7.99
2018-05-03T06:30:46.576Z,8.08
2018-05-03T06:31:56.587Z,8.05
2018-05-03T06:33:06.058Z,8.03
2018-05-03T06:34:15.896Z,8.03
2018-05-03T06:35:25.634Z,8.09
2018-05-03T06:36:35.387Z,8.17
2018-05-03T06:37:45.123Z,8.11
2018-05-03T06:38:54.791Z,8.17
2018-05-03T06:40:04.793Z,8.09
2018-05-03T06:41:14.581Z,8.05
2018-05-03T06:42:24.055Z,8.2
2018-05-03T06:43:34.055Z,8.21
2018-05-03T06:44:43.796Z,8.05
2018-05-03T06:45:53.875Z,8.13
2018-05-03T06:47:03.621Z,8.06
2018-05-03T06:48:13.635Z,8.05
2018-05-03T06:49:23.112Z,8.13
2018-05-03T06:50:33.123Z,8.17
2018-05-03T06:51:43.362Z,8.17
2018-05-03T06:52:53.381Z,8.16
2018-05-03T06:54:03.386Z,8.24
2018-05-03T06:55:13.388Z,8.28
2018-05-03T06:56:23.393Z,8.2
2018-05-03T06:57:33.128Z,8.28
2018-05-03T06:58:43.346Z,8.28
2018-05-03T06:59:53.361Z,8.28
2018-05-03T07:01:03.112Z,8.35
2018-05-03T07:02:12.601Z,8.34
2018-05-03T07:03:21.803Z,8.36
2018-05-03T07:04:31.949Z,8.45
2018-05-03T07:05:41.955Z,8.46
2018-05-03T07:06:51.437Z,8.5
2018-05-03T07:08:01.174Z,8.59
2018-05-03T07:09:10.925Z,8.57
2018-05-03T07:10:20.929Z,8.61
2018-05-03T07:11:30.675Z,8.69
2018-05-03T07:12:40.722Z,8.66
2018-05-03T07:13:50.464Z,8.72
2018-05-03T07:15:00.252Z,8.75
2018-05-03T07:16:09.995Z,8.75
2018-05-03T07:17:20.124Z,8.86
2018-05-03T07:18:29.596Z,8.86
2018-05-03T07:19:39.608Z,8.9
2018-05-03T07:20:49.447Z,8.9
2018-05-03T07:21:59.197Z,8.99
2018-05-03T07:23:09.210Z,8.96
2018-05-03T07:24:19.215Z,9.11
2018-05-03T07:25:29.226Z,9.08
2018-05-03T07:26:38.513Z,9.21
2018-05-03T07:27:48.264Z,9.21
2018-05-03T07:28:58.111Z,9.19
2018-05-03T07:30:07.857Z,9.27
2018-05-03T07:31:17.870Z,9.37
2018-05-03T07:32:27.877Z,9.3
2018-05-03T07:33:37.617Z,9.45
2018-05-03T07:34:47.727Z,9.51
2018-05-03T07:35:57.570Z,9.55
2018-05-03T07:37:07.093Z,9.48
2018-05-03T07:38:17.174Z,9.56
2018-05-03T07:39:26.926Z,9.51
2018-05-03T07:40:37.021Z,9.67
2018-05-03T07:41:46.827Z,9.67
2018-05-03T07:42:56.846Z,9.73
2018-05-03T07:44:06.871Z,9.74
2018-05-03T07:45:16.613Z,9.76
2018-05-03T07:46:26.632Z,9.84
2018-05-03T07:47:36.111Z,9.84
2018-05-03T07:48:45.971Z,9.84
2018-05-03T07:49:55.446Z,9.88
2018-05-03T07:51:04.933Z,9.88
2018-05-03T07:52:14.421Z,9.85
2018-05-03T07:53:24.436Z,9.91
2018-05-03T07:54:34.483Z,9.92
2018-05-03T07:55:44.490Z,10
2018-05-03T07:56:54.241Z,9.99
2018-05-03T07:58:03.985Z,9.94
2018-05-03T07:59:14.014Z,10.1
2018-05-03T08:00:23.755Z,10.06
2018-05-03T08:01:33.777Z,10.1
2018-05-03T08:02:43.783Z,10.2
2018-05-03T08:03:53.519Z,10.17
2018-05-03T08:05:03.527Z,10.24
2018-05-03T08:06:13.007Z,10.21
2018-05-03T08:07:22.743Z,10.33
2018-05-03T08:08:32.751Z,10.3
2018-05-03T08:09:42.230Z,10.38
2018-05-03T08:10:52.247Z,10.39
2018-05-03T08:12:02.039Z,10.31
2018-05-03T08:13:12.050Z,10.28
2018-05-03T08:14:22.065Z,10.27
2018-05-03T08:15:32.074Z,10.34
2018-05-03T08:16:41.811Z,10.36
2018-05-03T08:17:51.550Z,10.34
2018-05-03T08:19:01.290Z,10.38
2018-05-03T08:20:10.771Z,10.36
2018-05-03T08:21:20.526Z,10.39
2018-05-03T08:22:30.276Z,10.42
2018-05-03T08:23:40.303Z,10.39
2018-05-03T08:24:50.045Z,10.39
2018-05-03T08:26:00.051Z,10.36
2018-05-03T08:27:09.524Z,10.36
2018-05-03T08:28:19.265Z,10.31
2018-05-03T08:29:29.281Z,10.39
2018-05-03T08:30:39.190Z,10.34
2018-05-03T08:31:49.169Z,10.36
2018-05-03T08:32:59.600Z,10.34
2018-05-03T08:34:09.077Z,10.39
2018-05-03T08:35:18.834Z,10.34
2018-05-03T08:36:28.943Z,10.42
2018-05-03T08:37:38.422Z,10.45
2018-05-03T08:38:47.897Z,10.45
2018-05-03T08:39:57.636Z,10.48
2018-05-03T08:41:07.114Z,10.57
2018-05-03T08:42:17.120Z,10.61
2018-05-03T08:43:26.863Z,10.67
2018-05-03T08:44:35.807Z,10.62
2018-05-03T08:45:45.560Z,10.59
2018-05-03T08:46:55.573Z,10.59
2018-05-03T08:48:05.582Z,10.67
2018-05-03T08:49:15.593Z,10.75
2018-05-03T08:50:25.609Z,10.71
2018-05-03T08:51:35.626Z,10.77
2018-05-03T08:52:45.369Z,10.82
2018-05-03T08:53:55.111Z,10.83
2018-05-03T08:55:05.132Z,10.87
2018-05-03T08:56:14.877Z,10.86
2018-05-03T08:57:24.910Z,10.87
2018-05-03T08:58:34.659Z,10.9
2018-05-03T08:59:44.404Z,10.89
2018-05-03T09:00:54.152Z,10.97
2018-05-03T09:02:03.972Z,11.04
2018-05-03T09:03:13.990Z,11.15
2018-05-03T09:04:23.731Z,11.08
2018-05-03T09:05:33.481Z,11.15
2018-05-03T09:06:43.494Z,11.18
2018-05-03T09:07:53.733Z,11.23
2018-05-03T09:09:04.006Z,11.35
2018-05-03T09:10:13.747Z,11.44
2018-05-03T09:11:23.758Z,11.41
2018-05-03T09:12:33.231Z,11.52
2018-05-03T09:13:42.708Z,11.59
2018-05-03T09:14:52.717Z,11.67
2018-05-03T09:16:02.729Z,11.62
2018-05-03T09:17:12.801Z,11.74
2018-05-03T09:18:22.824Z,11.71
2018-05-03T09:19:32.565Z,11.85
2018-05-03T09:20:42.572Z,11.85
2018-05-03T09:21:52.311Z,11.88
2018-05-03T09:23:02.114Z,11.83
2018-05-03T09:24:11.861Z,11.88
2018-05-03T09:25:21.612Z,11.89
2018-05-03T09:26:31.102Z,11.89
2018-05-03T09:27:40.883Z,11.96
2018-05-03T09:28:50.358Z,11.97
2018-05-03T09:29:59.633Z,11.91
2018-05-03T09:31:09.373Z,11.86
2018-05-03T09:32:19.125Z,11.81
2018-05-03T09:33:28.869Z,11.88
2018-05-03T09:34:38.887Z,11.96
2018-05-03T09:35:48.894Z,12
2018-05-03T09:36:58.924Z,12.14
2018-05-03T09:38:08.406Z,12.14
2018-05-03T09:39:18.242Z,12.14
2018-05-03T09:40:28.373Z,12.25
2018-05-03T09:41:38.114Z,12.17
2018-05-03T09:42:47.856Z,12.17
2018-05-03T09:43:57.614Z,12.26
2018-05-03T09:45:07.353Z,12.18
2018-05-03T09:46:17.374Z,12.21
2018-05-03T09:47:27.383Z,12.21
2018-05-03T09:48:37.430Z,12.2
2018-05-03T09:49:47.440Z,12.17
2018-05-03T09:50:57.449Z,11.97
2018-05-03T09:52:07.201Z,12.03
2018-05-03T09:53:16.952Z,11.93
2018-05-03T09:54:26.959Z,12.05
2018-05-03T09:55:36.701Z,12
2018-05-03T09:56:46.715Z,11.97
2018-05-03T09:57:56.201Z,12.02
2018-05-03T09:59:05.408Z,11.99
2018-05-03T10:00:15.490Z,11.93
2018-05-03T10:01:25.235Z,11.81
2018-05-03T10:02:34.972Z,11.88
2018-05-03T10:03:44.814Z,11.85
2018-05-03T10:04:55.057Z,11.96
2018-05-03T10:06:04.792Z,11.97
2018-05-03T10:07:14.805Z,12.07
2018-05-03T10:08:24.828Z,12.08
2018-05-03T10:09:34.574Z,12.15
2018-05-03T10:10:44.579Z,12.14
2018-05-03T10:11:54.597Z,12.02
2018-05-03T10:13:04.340Z,12.02
2018-05-03T10:14:14.119Z,12.02
2018-05-03T10:15:23.865Z,11.97
2018-05-03T10:16:33.340Z,12.03
2018-05-03T10:17:42.827Z,11.96
2018-05-03T10:18:52.572Z,12.02
2018-05-03T10:20:02.582Z,11.99
2018-05-03T10:21:12.603Z,12
2018-05-03T10:22:22.406Z,12.08
2018-05-03T10:23:32.431Z,11.96
2018-05-03T10:24:42.437Z,12.1
2018-05-03T10:25:52.178Z,12.12
2018-05-03T10:27:01.921Z,12.2
2018-05-03T10:28:11.396Z,12.2
2018-05-03T10:29:21.141Z,12.15
2018-05-03T10:30:31.230Z,12.26
2018-05-03T10:31:41.235Z,12.36
2018-05-03T10:32:51.253Z,12.36
2018-05-03T10:34:01.266Z,12.39
2018-05-03T10:35:11.034Z,12.39
2018-05-03T10:36:21.427Z,12.35
2018-05-03T10:37:31.467Z,12.37
2018-05-03T10:38:41.208Z,12.5
2018-05-03T10:39:50.949Z,12.44
2018-05-03T10:41:00.975Z,12.48
2018-05-03T10:42:10.187Z,12.54
2018-05-03T10:43:20.457Z,12.66
2018-05-03T10:44:30.210Z,12.68
2018-05-03T10:45:39.952Z,12.7
2018-05-03T10:46:49.691Z,12.65
2018-05-03T10:47:59.176Z,12.69
2018-05-03T10:49:09.488Z,12.65
2018-05-03T10:50:18.874Z,12.61
2018-05-03T10:51:28.634Z,12.58
2018-05-03T10:52:38.113Z,12.68
2018-05-03T10:53:47.863Z,12.5
2018-05-03T10:54:57.606Z,12.5
2018-05-03T10:56:07.364Z,12.51
2018-05-03T10:57:17.134Z,12.5
2018-05-03T10:58:27.217Z,12.48
2018-05-03T10:59:36.689Z,12.48
2018-05-03T11:00:46.433Z,12.55
2018-05-03T11:01:55.915Z,12.55
2018-05-03T11:03:05.663Z,12.54
2018-05-03T11:04:15.409Z,12.5
2018-05-03T11:05:25.171Z,12.51
2018-05-03T11:06:35.557Z,12.45
2018-05-03T11:07:45.302Z,12.55
2018-05-03T11:08:55.310Z,12.65
2018-05-03T11:10:05.056Z,12.65
2018-05-03T11:11:15.352Z,12.69
2018-05-03T11:12:25.455Z,12.63
2018-05-03T11:13:35.300Z,12.65
2018-05-03T11:14:45.049Z,12.78
2018-05-03T11:15:54.801Z,12.63
2018-05-03T11:17:04.810Z,12.75
2018-05-03T11:18:14.547Z,12.8
2018-05-03T11:19:24.286Z,12.84
2018-05-03T11:20:34.029Z,12.57
2018-05-03T11:21:43.516Z,12.4
2018-05-03T11:22:53.273Z,12.02
2018-05-03T11:24:02.751Z,11.88
2018-05-03T11:25:12.765Z,11.91
2018-05-03T11:26:22.784Z,11.93
2018-05-03T11:27:32.520Z,12.03
2018-05-03T11:28:42.261Z,12.02
2018-05-03T11:29:52.003Z,11.85
2018-05-03T11:31:02.358Z,11.63
2018-05-03T11:32:12.028Z,11.6
2018-05-03T11:33:22.038Z,11.6
2018-05-03T11:34:31.322Z,11.53
2018-05-03T11:35:41.363Z,11.52
2018-05-03T11:36:51.081Z,11.43
2018-05-03T11:38:00.962Z,11.48
2018-05-03T11:39:10.703Z,11.52
2018-05-03T11:40:20.443Z,11.49
2018-05-03T11:41:30.184Z,11.49
2018-05-03T11:42:40.504Z,11.55
2018-05-03T11:43:50.411Z,11.52
2018-05-03T11:45:00.416Z,11.53
2018-05-03T11:46:10.426Z,11.48
2018-05-03T11:47:20.438Z,11.51
2018-05-03T11:48:30.453Z,11.49
2018-05-03T11:49:40.460Z,11.52
2018-05-03T11:50:50.470Z,11.49
2018-05-03T11:51:59.940Z,11.58
2018-05-03T11:53:09.685Z,11.6
2018-05-03T11:54:19.446Z,11.63
2018-05-03T11:55:29.467Z,11.65
2018-05-03T11:56:38.939Z,11.71
2018-05-03T11:57:48.681Z,11.76
2018-05-03T11:58:58.158Z,11.8
2018-05-03T12:00:07.938Z,11.78
2018-05-03T12:01:17.946Z,11.7
2018-05-03T12:02:27.762Z,11.65
2018-05-03T12:03:37.373Z,11.62
2018-05-03T12:04:47.117Z,11.63
2018-05-03T12:05:57.090Z,11.62
2018-05-03T12:07:06.970Z,11.59
2018-05-03T12:08:16.980Z,11.45
2018-05-03T12:09:26.765Z,11.51
2018-05-03T12:10:36.514Z,11.38
2018-05-03T12:11:46.698Z,11.27
2018-05-03T12:12:57.082Z,11.22
2018-05-03T12:14:06.837Z,11.08
2018-05-03T12:15:16.576Z,11.01
2018-05-03T12:16:26.056Z,11.05
2018-05-03T12:17:36.071Z,11
2018-05-03T12:18:45.812Z,11
2018-05-03T12:19:55.833Z,10.94
2018-05-03T12:21:05.308Z,10.87
2018-05-03T12:22:15.050Z,10.87
2018-05-03T12:23:25.054Z,10.68
2018-05-03T12:24:34.979Z,10.59
2018-05-03T12:25:44.998Z,10.64
2018-05-03T12:26:54.746Z,10.57
2018-05-03T12:28:04.756Z,10.43
2018-05-03T12:29:14.762Z,10.39
2018-05-03T12:30:24.773Z,10.43
2018-05-03T12:31:34.786Z,10.38
2018-05-03T12:32:44.793Z,10.24
2018-05-03T12:33:54.805Z,10.13
2018-05-03T12:35:04.956Z,10.05
2018-05-03T12:36:14.970Z,9.94
2018-05-03T12:37:24.719Z,9.9
2018-05-03T12:38:34.839Z,9.82
2018-05-03T12:39:44.851Z,9.63
2018-05-03T12:40:54.322Z,9.69
2018-05-03T12:42:03.801Z,9.56
2018-05-03T12:43:13.274Z,9.51
2018-05-03T12:44:23.013Z,9.48
2018-05-03T12:45:33.028Z,9.45
2018-05-03T12:46:43.045Z,9.44
2018-05-03T12:47:53.051Z,9.39
2018-05-03T12:49:02.523Z,9.4
2018-05-03T12:50:12.338Z,9.33
2018-05-03T12:51:22.079Z,9.34
2018-05-03T12:52:31.286Z,9.27
2018-05-03T12:53:41.290Z,9.3
2018-05-03T12:54:51.028Z,9.13
2018-05-03T12:56:00.767Z,9.27
2018-05-03T12:57:10.772Z,9.27
2018-05-03T12:58:19.976Z,9.27
2018-05-03T12:59:29.978Z,9.21
2018-05-03T13:00:39.729Z,9.29
2018-05-03T13:01:49.827Z,9.22
2018-05-03T13:02:59.570Z,9.29
2018-05-03T13:04:09.321Z,9.31
2018-05-03T13:05:18.834Z,9.39
2018-05-03T13:06:28.583Z,9.34
2018-05-03T13:07:38.599Z,9.3
2018-05-03T13:08:48.612Z,9.4
2018-05-03T13:09:58.418Z,9.48
2018-05-03T13:11:07.626Z,9.49
2018-05-03T13:12:17.654Z,9.63
2018-05-03T13:13:27.669Z,9.54
2018-05-03T13:14:37.495Z,9.49
2018-05-03T13:15:47.540Z,9.52
2018-05-03T13:16:57.551Z,9.45
2018-05-03T13:18:07.311Z,9.34
2018-05-03T13:19:17.320Z,9.34
2018-05-03T13:20:27.343Z,9.24
2018-05-03T13:21:37.449Z,9.19
2018-05-03T13:22:47.454Z,9.16
2018-05-03T13:23:57.458Z,9.11
2018-05-03T13:25:07.218Z,9.05
2018-05-03T13:26:17.223Z,8.97
2018-05-03T13:27:27.240Z,8.87
2018-05-03T13:28:36.710Z,8.86
2018-05-03T13:29:46.451Z,8.81
2018-05-03T13:30:56.455Z,8.75
2018-05-03T13:32:06.200Z,8.68
2018-05-03T13:33:15.952Z,8.77
2018-05-03T13:34:26.083Z,8.66
2018-05-03T13:35:36.300Z,8.68
2018-05-03T13:36:46.304Z,8.66
2018-05-03T13:37:56.314Z,8.71
2018-05-03T13:39:06.182Z,8.63
2018-05-03T13:40:16.295Z,8.69
2018-05-03T13:41:26.673Z,8.63
2018-05-03T13:42:37.340Z,8.72
2018-05-03T13:43:47.275Z,8.78
2018-05-03T13:44:57.259Z,8.69
2018-05-03T13:46:07.281Z,8.72
2018-05-03T13:47:17.300Z,8.72
2018-05-03T13:48:26.802Z,8.71
2018-05-03T13:49:36.807Z,8.72
2018-05-03T13:50:46.811Z,8.74
2018-05-03T13:51:56.299Z,8.72
2018-05-03T13:53:06.317Z,8.68
2018-05-03T13:54:15.806Z,8.72
2018-05-03T13:55:25.589Z,8.74
2018-05-03T13:56:35.439Z,8.71
2018-05-03T13:57:45.175Z,8.74
2018-05-03T13:58:54.922Z,8.71
2018-05-03T14:00:04.658Z,8.77
2018-05-03T14:01:14.743Z,8.75
2018-05-03T14:02:24.749Z,8.77
2018-05-03T14:03:34.759Z,8.71
2018-05-03T14:04:44.771Z,8.71
2018-05-03T14:05:54.783Z,8.64
2018-05-03T14:07:04.635Z,8.72
2018-05-03T14:08:15.099Z,8.72
2018-05-03T14:09:24.853Z,8.78
2018-05-03T14:10:34.861Z,8.71
2018-05-03T14:11:44.869Z,8.81
2018-05-03T14:12:55.094Z,8.75
2018-05-03T14:14:04.928Z,8.72
2018-05-03T14:15:14.410Z,8.72
2018-05-03T14:16:24.415Z,8.71
2018-05-03T14:17:34.159Z,8.72
2018-05-03T14:18:43.642Z,8.77
2018-05-03T14:19:53.117Z,8.78
2018-05-03T14:21:03.409Z,8.69
2018-05-03T14:22:13.216Z,8.72
2018-05-03T14:23:23.221Z,8.68
2018-05-03T14:24:32.696Z,8.75
2018-05-03T14:25:42.279Z,8.71
2018-05-03T14:26:52.298Z,8.68
2018-05-03T14:28:02.039Z,8.78
2018-05-03T14:29:11.243Z,8.72
2018-05-03T14:30:21.253Z,8.57
2018-05-03T14:31:30.742Z,8.54
2018-05-03T14:32:40.215Z,8.53
2018-05-03T14:33:49.428Z,8.41
2018-05-03T14:34:59.445Z,8.44
2018-05-03T14:36:08.920Z,8.46
2018-05-03T14:37:18.398Z,8.41
2018-05-03T14:38:28.228Z,8.49
2018-05-03T14:39:38.239Z,8.49
2018-05-03T14:40:47.985Z,8.49
2018-05-03T14:41:57.755Z,8.59
2018-05-03T14:43:07.761Z,8.66
2018-05-03T14:44:17.232Z,8.52
2018-05-03T14:45:27.250Z,8.69
2018-05-03T14:46:37.256Z,8.69
2018-05-03T14:47:46.999Z,8.66
2018-05-03T14:48:57.006Z,8.66
2018-05-03T14:50:06.477Z,8.77
2018-05-03T14:51:16.222Z,8.75
2018-05-03T14:52:25.959Z,8.74
2018-05-03T14:53:35.979Z,8.63
2018-05-03T14:54:46.018Z,8.66
2018-05-03T14:55:56.028Z,8.66
2018-05-03T14:57:05.767Z,8.68
2018-05-03T14:58:15.242Z,8.68
2018-05-03T14:59:24.711Z,8.69
2018-05-03T15:00:33.917Z,8.68
2018-05-03T15:01:43.667Z,8.63
2018-05-03T15:02:53.405Z,8.57
2018-05-03T15:04:02.902Z,8.52
2018-05-03T15:05:12.912Z,8.54
2018-05-03T15:06:22.921Z,8.57
2018-05-03T15:07:32.725Z,8.42
2018-05-03T15:08:42.734Z,8.42
2018-05-03T15:09:52.208Z,8.35
2018-05-03T15:11:02.225Z,8.24
2018-05-03T15:12:12.237Z,8.31
2018-05-03T15:13:22.241Z,8.21
2018-05-03T15:14:31.996Z,8.11
2018-05-03T15:15:41.999Z,8.08
2018-05-03T15:16:51.740Z,7.95
2018-05-03T15:18:01.757Z,7.96
2018-05-03T15:19:11.238Z,7.87
2018-05-03T15:20:21.246Z,7.74
2018-05-03T15:21:30.719Z,7.75
2018-05-03T15:22:40.723Z,7.8
2018-05-03T15:23:50.565Z,7.69
2018-05-03T15:25:00.592Z,7.61
2018-05-03T15:26:10.607Z,7.44